Time;durP1;ratioP1;P1;durP2;ratioP2;P2;SDS_P1;SDS_P2;PMS_P1;PMS_P2;Temp;Humidity;BMP_temperature;BMP_pressure;BME280_temperature;BME280_humidity;BME280_pressure;Samples;Min_cycle;Max_cycle;Signal;HPM_P1;HPM_P2
2023/11/20 00:01:53;;;;;;;20.33;2.83;;;;;;;11.41;100.00;100784.91;5041628;28;20032;-90
2023/11/20 00:04:18;;;;;;;20.30;4.00;;;;;;;11.36;100.00;100777.25;5046567;28;20067;-90
2023/11/20 00:06:44;;;;;;;14.65;3.85;;;;;;;11.38;100.00;100782.44;5039372;28;20041;-90
2023/11/20 00:09:09;;;;;;;21.92;2.13;;;;;;;11.37;100.00;100783.31;5043748;28;20032;-90
2023/11/20 00:11:35;;;;;;;23.92;2.97;;;;;;;11.35;100.00;100786.03;5054712;28;20041;-90
2023/11/20 00:14:00;;;;;;;18.45;2.90;;;;;;;11.38;100.00;100785.03;5053054;28;20038;-90
2023/11/20 00:16:26;;;;;;;21.83;3.40;;;;;;;11.38;100.00;100783.25;5044708;28;20659;-90
2023/11/20 00:18:51;;;;;;;25.00;3.75;;;;;;;11.38;100.00;100798.16;5035066;28;20035;-90
2023/11/20 00:21:16;;;;;;;14.27;2.42;;;;;;;11.39;100.00;100784.09;5035775;28;20041;-90
2023/11/20 00:23:42;;;;;;;25.05;3.05;;;;;;;11.38;100.00;100791.13;5035826;28;20037;-90
2023/11/20 00:26:14;;;;;;;15.00;2.97;;;;;;;11.37;100.00;100789.44;5045159;28;20121;-90
2023/11/20 00:28:42;;;;;;;16.40;2.70;;;;;;;11.37;100.00;100796.44;5046159;28;20241;-90
2023/11/20 00:31:17;;;;;;;13.07;2.75;;;;;;;11.37;100.00;100784.19;5036892;28;20029;-90
2023/11/20 00:33:42;;;;;;;12.65;3.70;;;;;;;11.38;100.00;100787.66;5034468;28;20324;-90
2023/11/20 00:36:09;;;;;;;17.98;2.78;;;;;;;11.38;100.00;100785.03;5051142;28;20132;-90
2023/11/20 00:38:35;;;;;;;16.50;2.67;;;;;;;11.37;100.00;100789.44;5055022;28;20197;-90
2023/11/20 00:41:00;;;;;;;20.00;3.97;;;;;;;11.34;100.00;100789.56;5055514;28;20056;-90
2023/11/20 00:43:25;;;;;;;17.60;2.95;;;;;;;11.34;100.00;100789.56;5055306;28;20037;-90
2023/11/20 00:45:51;;;;;;;14.68;2.70;;;;;;;11.34;100.00;100785.19;5055365;28;20020;-90
2023/11/20 00:48:16;;;;;;;20.42;3.30;;;;;;;11.33;100.00;100780.88;5054093;28;20033;-90
2023/11/20 00:50:41;;;;;;;19.25;3.15;;;;;;;11.32;100.00;100779.16;5038412;28;20025;-90
2023/11/20 00:53:07;;;;;;;25.35;4.05;;;;;;;11.29;100.00;100779.28;5035136;28;20075;-90
2023/11/20 00:55:32;;;;;;;22.30;3.22;;;;;;;11.26;100.00;100787.31;5050124;28;20033;-90
2023/11/20 00:57:58;;;;;;;11.32;2.72;;;;;;;11.29;100.00;100792.38;5043537;28;20148;-90
2023/11/20 01:00:24;;;;;;;14.70;2.40;;;;;;;11.32;100.00;100794.03;5046158;28;20042;-90
2023/11/20 01:02:50;;;;;;;19.45;3.13;;;;;;;11.31;100.00;100782.72;5050437;28;20395;-90
2023/11/20 01:05:16;;;;;;;15.02;2.92;;;;;;;11.31;100.00;100784.47;5054097;28;20356;-90
2023/11/20 01:07:41;;;;;;;21.23;3.58;;;;;;;11.28;100.00;100801.19;5053412;28;20039;-90
2023/11/20 01:10:07;;;;;;;19.70;3.13;;;;;;;11.28;100.00;100800.34;5037125;28;20270;-90
2023/11/20 01:12:33;;;;;;;16.52;3.00;;;;;;;11.28;100.00;100795.94;5034537;28;20033;-90
2023/11/20 01:14:58;;;;;;;15.15;2.35;;;;;;;11.29;100.00;100808.13;5054074;28;20083;-90
2023/11/20 01:17:23;;;;;;;16.98;2.72;;;;;;;11.26;100.00;100802.16;5038979;28;20109;-90
2023/11/20 01:19:49;;;;;;;19.23;3.05;;;;;;;11.22;100.00;100804.06;5049780;28;20032;-90
2023/11/20 01:22:14;;;;;;;11.90;2.10;;;;;;;11.23;100.00;100815.41;5045461;28;20040;-90
2023/11/20 01:24:40;;;;;;;12.23;2.35;;;;;;;11.22;100.00;100821.56;5051054;28;20051;-90
2023/11/20 01:27:06;;;;;;;21.42;2.72;;;;;;;11.22;100.00;100821.56;5045757;28;20029;-90
2023/11/20 01:29:35;;;;;;;15.80;2.55;;;;;;;11.15;100.00;100823.59;5045311;28;20067;-90
2023/11/20 01:32:00;;;;;;;20.73;2.70;;;;;;;11.12;100.00;100823.75;5047295;28;20087;-90
2023/11/20 01:34:26;;;;;;;18.55;3.17;;;;;;;11.11;100.00;100822.91;5041812;28;20056;-90
2023/11/20 01:36:51;;;;;;;19.20;3.05;;;;;;;11.13;100.00;100825.44;5041528;28;20455;-90
2023/11/20 01:39:17;;;;;;;15.45;2.83;;;;;;;11.11;100.00;100828.16;5035546;28;20041;-90
2023/11/20 01:41:42;;;;;;;14.75;2.45;;;;;;;11.12;100.00;100829.84;5052111;28;20037;-90
2023/11/20 01:44:07;;;;;;;18.65;3.13;;;;;;;11.14;100.00;100835.00;5038924;28;20320;-90
2023/11/20 01:46:34;;;;;;;19.38;3.03;;;;;;;11.12;100.00;100829.84;5053294;28;20377;-90
2023/11/20 01:49:01;;;;;;;13.27;2.22;;;;;;;11.16;100.00;100833.16;5053044;28;20048;-90
2023/11/20 01:51:28;;;;;;;18.38;3.28;;;;;;;11.13;100.00;100825.44;5047100;28;20045;-90
2023/11/20 01:53:55;;;;;;;20.30;3.67;;;;;;;11.12;100.00;100819.34;5038580;28;20037;-90
2023/11/20 01:56:22;;;;;;;11.65;2.60;;;;;;;11.13;100.00;100830.69;5032907;28;20083;-90
2023/11/20 01:58:47;;;;;;;19.67;3.25;;;;;;;11.13;100.00;100822.81;5034629;28;20263;-90
2023/11/20 02:01:13;;;;;;;14.98;2.45;;;;;;;11.09;100.00;100835.19;5035943;28;20029;-90
2023/11/20 02:03:38;;;;;;;17.48;3.13;;;;;;;11.05;100.00;100825.78;5043995;28;20111;-90
2023/11/20 02:06:04;;;;;;;18.33;2.65;;;;;;;11.02;100.00;100836.38;5035316;28;20094;-90
2023/11/20 02:08:30;;;;;;;27.70;4.72;;;;;;;11.00;100.00;100827.72;5033882;28;20325;-90
2023/11/20 02:10:59;;;;;;;22.50;3.53;;;;;;;10.97;100.00;100837.50;5037632;28;20049;-90
2023/11/20 02:13:25;;;;;;;17.02;3.28;;;;;;;10.95;100.00;100830.56;5046081;28;20306;-90
2023/11/20 02:15:50;;;;;;;9.98;2.25;;;;;;;10.93;100.00;100831.53;5046013;28;20033;-90
2023/11/20 02:18:33;;;;;;;16.40;2.40;;;;;;;10.93;100.00;100827.16;5038183;28;20039;-90
2023/11/20 02:20:58;;;;;;;19.17;2.90;;;;;;;10.91;100.00;100831.63;5051513;28;20339;-90
2023/11/20 02:23:24;;;;;;;18.88;2.60;;;;;;;10.94;100.00;100826.22;5058131;28;20032;-90
2023/11/20 02:26:13;;;;;;;24.55;3.92;;;;;;;10.98;100.00;100823.47;5048936;28;20025;-90
2023/11/20 02:28:40;;;;;;;21.10;3.47;;;;;;;10.95;100.00;100820.09;5040941;28;20045;-90
2023/11/20 02:31:05;;;;;;;10.15;2.65;;;;;;;10.97;100.00;100827.00;5048523;28;20059;-90
2023/11/20 02:33:37;;;;;;;20.38;3.55;;;;;;;10.95;100.00;100822.69;5037462;28;20340;-90
2023/11/20 02:36:06;;;;;;;15.18;3.05;;;;;;;11.00;100.00;100821.66;5038703;28;20044;-90
2023/11/20 02:38:31;;;;;;;;;;;;;;;10.97;100.00;100827.88;5054250;28;20044;-89
2023/11/20 02:40:58;;;;;;;20.38;3.58;;;;;;;10.99;100.00;100819.94;5048850;28;20090;-90
2023/11/20 02:43:24;;;;;;;14.30;2.30;;;;;;;10.99;100.00;100830.41;5043183;28;20025;-90
2023/11/20 02:45:49;;;;;;;10.35;1.98;;;;;;;11.00;100.00;100819.03;5054384;28;20094;-90
2023/11/20 02:48:14;;;;;;;14.02;2.65;;;;;;;10.97;100.00;100811.28;5045553;28;20232;-90
2023/11/20 02:50:40;;;;;;;23.60;3.42;;;;;;;10.98;100.00;100815.63;5054581;28;20071;-90
2023/11/20 02:53:05;;;;;;;19.42;2.85;;;;;;;10.99;100.00;100817.31;5035789;28;20052;-90
2023/11/20 02:55:31;;;;;;;22.10;3.30;;;;;;;10.98;100.00;100824.31;5044248;28;20347;-90
2023/11/20 02:57:56;;;;;;;14.60;3.05;;;;;;;10.98;100.00;100823.47;5046713;28;20320;-90
2023/11/20 03:00:21;;;;;;;13.10;2.40;;;;;;;10.98;100.00;100823.47;5048345;28;20045;-90
2023/11/20 03:02:47;;;;;;;11.57;2.92;;;;;;;10.97;100.00;100825.25;5038752;28;20040;-90
2023/11/20 03:05:12;;;;;;;9.90;2.72;;;;;;;10.98;100.00;100813.00;5035296;28;20035;-90
2023/11/20 03:07:37;;;;;;;25.25;2.80;;;;;;;10.97;100.00;100821.78;5041534;28;20036;-90
2023/11/20 03:10:03;;;;;;;20.73;2.67;;;;;;;10.97;100.00;100827.00;5036741;28;20033;-90
2023/11/20 03:12:29;;;;;;;14.30;3.00;;;;;;;10.94;100.00;100823.59;5036868;28;20041;-90
2023/11/20 03:14:58;;;;;;;14.05;2.92;;;;;;;10.92;100.00;100829.84;5035167;28;20036;-90
2023/11/20 03:17:24;;;;;;;24.52;3.35;;;;;;;10.91;100.00;100830.75;5036118;28;20213;-90
2023/11/20 03:19:49;;;;;;;13.40;2.67;;;;;;;10.93;100.00;100832.41;5034868;28;20103;-90
2023/11/20 03:22:14;;;;;;;14.07;2.83;;;;;;;10.92;100.00;100830.69;5036014;28;20029;-90
2023/11/20 03:24:40;;;;;;;10.48;1.73;;;;;;;10.95;100.00;100824.44;5034477;28;20025;-90
2023/11/20 03:27:05;;;;;;;18.05;3.38;;;;;;;10.92;100.00;100828.06;5052150;28;20104;-90
2023/11/20 03:29:31;;;;;;;17.52;3.22;;;;;;;10.93;100.00;100824.53;5036726;28;20029;-90
2023/11/20 03:31:56;;;;;;;21.02;2.95;;;;;;;10.92;100.00;100824.59;5036959;28;20071;-90
2023/11/20 03:34:22;;;;;;;21.55;3.88;;;;;;;10.93;100.00;100828.91;5042079;28;20281;-90
2023/11/20 03:36:47;;;;;;;15.90;2.88;;;;;;;10.93;100.00;100831.53;5055408;28;20078;-88
2023/11/20 03:39:12;;;;;;;17.20;2.88;;;;;;;10.92;100.00;100824.59;5038108;28;20041;-88
2023/11/20 03:41:38;;;;;;;15.30;2.25;;;;;;;10.91;100.00;100828.13;5048418;28;20051;-88
2023/11/20 03:44:03;;;;;;;17.00;2.67;;;;;;;10.93;100.00;100826.28;5038427;28;20128;-88
2023/11/20 03:46:29;;;;;;;17.45;3.33;;;;;;;10.90;100.00;100826.44;5054831;28;20025;-88
2023/11/20 03:48:54;;;;;;;15.73;2.78;;;;;;;10.88;100.00;100826.50;5042200;28;20237;-88
2023/11/20 03:51:19;;;;;;;19.00;3.92;;;;;;;10.89;100.00;100824.72;5034658;28;20025;-88
2023/11/20 03:53:45;;;;;;;16.80;3.30;;;;;;;10.88;100.00;100815.16;5034433;28;20398;-88
2023/11/20 03:56:12;;;;;;;20.48;2.53;;;;;;;10.90;100.00;100823.81;5034912;28;20057;-88
2023/11/20 03:58:37;;;;;;;12.23;2.42;;;;;;;10.90;100.00;100811.56;5034238;28;20033;-88
2023/11/20 04:01:03;;;;;;;9.10;2.10;;;;;;;10.92;100.00;100814.13;5036192;28;20091;-88
2023/11/20 04:03:29;;;;;;;6.97;2.15;;;;;;;10.93;100.00;100816.69;5047430;28;20114;-88
2023/11/20 04:05:54;;;;;;;6.85;1.52;;;;;;;10.94;100.00;100820.97;5035422;28;20103;-88
2023/11/20 04:08:19;;;;;;;11.32;2.42;;;;;;;10.93;100.00;100824.53;5041579;28;20607;-88
2023/11/20 04:10:45;;;;;;;19.05;2.53;;;;;;;10.91;100.00;100825.50;5053712;28;20048;-88
2023/11/20 04:13:10;;;;;;;12.32;2.45;;;;;;;10.90;100.00;100821.19;5054672;28;20288;-88
2023/11/20 04:15:36;;;;;;;11.85;2.38;;;;;;;10.91;100.00;100826.38;5054058;28;20037;-88
2023/11/20 04:18:01;;;;;;;13.00;2.50;;;;;;;10.91;100.00;100828.13;5055610;28;20791;-88
2023/11/20 04:20:27;;;;;;;10.23;2.47;;;;;;;10.91;100.00;100834.25;5050088;28;20041;-88
2023/11/20 04:22:54;;;;;;;16.48;2.28;;;;;;;10.90;100.00;100829.06;5034615;28;20249;-88
2023/11/20 04:25:20;;;;;;;17.63;2.70;;;;;;;10.86;100.00;100823.09;5034690;28;20029;-88
2023/11/20 04:27:51;;;;;;;9.85;2.45;;;;;;;10.89;100.00;100828.19;5033634;28;20217;-88
2023/11/20 04:30:17;;;;;;;11.05;2.22;;;;;;;10.89;100.00;100824.72;5035777;28;20029;-88
2023/11/20 04:32:43;;;;;;;14.05;2.25;;;;;;;10.88;100.00;100823.03;5035000;28;20065;-88
2023/11/20 04:35:08;;;;;;;6.15;2.03;;;;;;;10.88;100.00;100817.78;5035050;28;20037;-88
2023/11/20 04:37:33;;;;;;;7.82;2.10;;;;;;;10.88;100.00;100823.03;5034065;28;20090;-88
2023/11/20 04:39:59;;;;;;;8.73;2.33;;;;;;;10.89;100.00;100825.56;5034176;28;20396;-89
2023/11/20 04:42:24;;;;;;;16.50;2.75;;;;;;;10.87;100.00;100832.63;5035722;28;20328;-88
2023/11/20 04:44:49;;;;;;;20.90;3.38;;;;;;;10.83;100.00;100825.00;5034592;28;20268;-88
2023/11/20 04:47:15;;;;;;;17.80;2.90;;;;;;;10.84;100.00;100824.06;5035537;28;20037;-88
2023/11/20 04:49:40;;;;;;;10.90;2.30;;;;;;;10.82;100.00;100821.50;5034958;28;20106;-88
2023/11/20 04:52:05;;;;;;;13.70;2.60;;;;;;;10.80;100.00;100825.94;5033702;28;20032;-88
2023/11/20 04:54:31;;;;;;;18.85;3.10;;;;;;;10.78;100.00;100808.59;5032747;28;20053;-88
2023/11/20 04:56:58;;;;;;;25.02;3.80;;;;;;;10.75;100.00;100820.03;5040471;28;20053;-88
2023/11/20 04:59:24;;;;;;;22.40;2.88;;;;;;;10.69;100.00;100815.06;5055411;28;20059;-88
2023/11/20 05:01:49;;;;;;;14.52;2.70;;;;;;;10.67;100.00;100817.75;5053417;28;20041;-88
2023/11/20 05:04:15;;;;;;;17.45;3.13;;;;;;;10.64;100.00;100815.28;5053040;28;20028;-88
2023/11/20 05:06:40;;;;;;;11.45;1.85;;;;;;;10.66;100.00;100813.44;5054366;28;20087;-88
2023/11/20 05:09:07;;;;;;;17.42;2.80;;;;;;;10.66;100.00;100823.06;5055137;28;20104;-88
2023/11/20 05:11:32;;;;;;;12.05;2.47;;;;;;;10.62;100.00;100824.94;5054414;28;20037;-88
2023/11/20 05:13:59;;;;;;;21.80;3.63;;;;;;;10.61;100.00;100830.28;5054710;28;20052;-88
2023/11/20 05:16:25;;;;;;;20.85;3.33;;;;;;;10.57;100.00;100826.91;5052741;28;20345;-88
2023/11/20 05:18:50;;;;;;;10.88;1.88;;;;;;;10.58;100.00;100826.00;5054101;28;20032;-88
2023/11/20 05:21:15;;;;;;;11.57;2.30;;;;;;;10.60;100.00;100820.69;5054285;28;20087;-88
2023/11/20 05:23:41;;;;;;;10.98;2.45;;;;;;;10.59;100.00;100826.84;5051863;28;20024;-88
2023/11/20 05:26:06;;;;;;;6.78;2.10;;;;;;;10.58;100.00;100828.59;5043304;28;20078;-88
2023/11/20 05:28:31;;;;;;;10.88;1.70;;;;;;;10.60;100.00;100825.94;5036728;28;20104;-88
2023/11/20 05:30:57;;;;;;;13.75;2.13;;;;;;;10.57;100.00;100824.31;5044880;28;20040;-88
2023/11/20 05:33:23;;;;;;;13.05;2.47;;;;;;;10.55;100.00;100829.59;5035872;28;20100;-88
2023/11/20 05:35:48;;;;;;;14.13;2.55;;;;;;;10.59;100.00;100832.06;5038779;28;20059;-89
2023/11/20 05:38:14;;;;;;;15.15;2.85;;;;;;;10.61;100.00;100832.88;5045040;28;20029;-89
2023/11/20 05:40:39;;;;;;;14.27;2.00;;;;;;;10.65;100.00;100834.47;5034028;28;20045;-89
2023/11/20 05:43:04;;;;;;;13.73;4.00;;;;;;;10.69;100.00;100831.63;5047983;28;20067;-89
2023/11/20 05:45:30;;;;;;;11.80;2.15;;;;;;;10.73;100.00;100834.97;5052077;28;20345;-89
2023/11/20 05:47:55;;;;;;;7.68;1.98;;;;;;;10.76;100.00;100827.00;5038970;28;20441;-89
2023/11/20 05:50:20;;;;;;;8.93;2.40;;;;;;;10.74;100.00;100837.53;5033233;28;20260;-89
2023/11/20 05:52:46;;;;;;;22.77;3.53;;;;;;;10.72;100.00;100833.28;5033729;28;20088;-88
2023/11/20 05:55:12;;;;;;;16.73;3.42;;;;;;;10.72;100.00;100834.13;5032945;28;20045;-88
2023/11/20 05:57:37;;;;;;;18.10;3.00;;;;;;;10.69;100.00;100836.03;5038104;28;20092;-89
2023/11/20 06:00:03;;;;;;;21.63;3.00;;;;;;;10.64;100.00;100831.00;5052798;28;20028;-88
2023/11/20 06:02:29;;;;;;;26.02;4.68;;;;;;;10.66;100.00;100836.16;5046532;28;20116;-86
2023/11/20 06:04:54;;;;;;;21.10;3.30;;;;;;;10.59;100.00;100829.44;5035675;28;20044;-88
2023/11/20 06:07:19;;;;;;;23.58;3.97;;;;;;;10.61;100.00;100835.50;5041897;28;20047;-88
2023/11/20 06:09:45;;;;;;;17.58;3.35;;;;;;;10.56;100.00;100849.63;5033750;28;20336;-88
2023/11/20 06:12:10;;;;;;;22.73;3.35;;;;;;;10.54;100.00;100845.38;5047617;28;20534;-88
2023/11/20 06:14:36;;;;;;;23.95;3.42;;;;;;;10.56;100.00;100843.53;5041404;28;20049;-88
2023/11/20 06:17:01;;;;;;;24.55;3.58;;;;;;;10.52;100.00;100847.19;5046014;28;20041;-88
2023/11/20 06:19:27;;;;;;;16.40;2.95;;;;;;;10.50;100.00;100870.81;5032638;28;20339;-88
2023/11/20 06:21:53;;;;;;;23.08;3.53;;;;;;;10.50;100.00;100862.97;5036719;28;20037;-88
2023/11/20 06:24:19;;;;;;;17.63;3.28;;;;;;;10.45;100.00;100857.06;5047938;28;20112;-88
2023/11/20 06:26:45;;;;;;;17.65;2.58;;;;;;;10.38;100.00;100853.81;5052577;28;20040;-88
2023/11/20 06:29:11;;;;;;;9.80;2.03;;;;;;;10.34;100.00;100846.16;5052377;28;20036;-88
2023/11/20 06:31:36;;;;;;;13.38;2.47;;;;;;;10.34;100.00;100854.84;5051212;28;20095;-88
2023/11/20 06:34:02;;;;;;;18.52;2.92;;;;;;;10.32;100.00;100848.00;5045072;28;20055;-88
2023/11/20 06:36:27;;;;;;;9.65;2.47;;;;;;;10.33;100.00;100849.69;5040990;28;20136;-88
2023/11/20 06:38:53;;;;;;;6.97;1.95;;;;;;;10.34;100.00;100846.16;5044852;28;20059;-88
2023/11/20 06:41:18;;;;;;;6.22;1.80;;;;;;;10.34;100.00;100849.63;5040791;28;20336;-88
2023/11/20 06:43:44;;;;;;;6.40;1.60;;;;;;;10.37;100.00;100857.38;5041678;28;20120;-88
2023/11/20 06:46:21;;;;;;;7.45;1.80;;;;;;;10.36;100.00;100855.66;5040152;28;20053;-88
2023/11/20 06:48:46;;;;;;;9.73;1.67;;;;;;;10.33;100.00;100850.56;5041103;28;20324;-88
2023/11/20 06:51:12;;;;;;;10.52;2.83;;;;;;;10.31;100.00;100859.38;5043710;28;20384;-88
2023/11/20 06:53:38;;;;;;;19.73;3.22;;;;;;;10.27;100.00;100855.13;5043663;28;20221;-88
2023/11/20 06:56:04;;;;;;;18.98;3.30;;;;;;;10.25;100.00;100862.19;5042098;28;20051;-88
2023/11/20 06:58:33;;;;;;;16.40;3.00;;;;;;;10.23;100.00;100853.56;5035951;28;20041;-88
2023/11/20 07:01:00;;;;;;;23.55;3.78;;;;;;;10.21;100.00;100864.09;5038760;28;20044;-88
2023/11/20 07:03:25;;;;;;;21.98;3.35;;;;;;;10.17;100.00;100871.19;5056922;28;20343;-88
2023/11/20 07:05:50;;;;;;;17.10;3.47;;;;;;;10.16;100.00;100869.47;5054496;28;20057;-88
2023/11/20 07:08:21;;;;;;;21.63;3.05;;;;;;;10.16;100.00;100868.63;5054721;28;20277;-88
2023/11/20 07:10:46;;;;;;;18.52;2.75;;;;;;;10.14;100.00;100863.47;5056262;28;20044;-88
2023/11/20 07:13:12;;;;;;;12.65;2.85;;;;;;;10.13;100.00;100869.63;5037574;28;20045;-88
2023/11/20 07:15:37;;;;;;;18.30;2.60;;;;;;;10.14;100.00;100868.69;5036320;28;20285;-88
2023/11/20 07:18:02;;;;;;;13.52;2.60;;;;;;;10.09;100.00;100873.25;5047796;28;20041;-88
2023/11/20 07:20:28;;;;;;;27.15;3.40;;;;;;;10.06;100.00;100870.75;5036530;28;20040;-88
2023/11/20 07:22:55;;;;;;;23.73;3.17;;;;;;;10.07;100.00;100875.06;5035553;28;20096;-87
2023/11/20 07:25:21;;;;;;;18.27;2.80;;;;;;;10.06;100.00;100883.84;5036854;28;20083;-88
2023/11/20 07:27:46;;;;;;;19.13;4.25;;;;;;;10.04;100.00;100877.81;5041671;28;20280;-88
2023/11/20 07:30:12;;;;;;;32.50;3.83;;;;;;;10.00;100.00;100889.28;5045753;28;20373;-88
2023/11/20 07:32:38;;;;;;;16.42;3.75;;;;;;;10.01;100.00;100883.16;5038876;28;20037;-88
2023/11/20 07:35:04;;;;;;;18.80;3.90;;;;;;;9.95;100.00;100886.00;5046239;28;20025;-88
2023/11/20 07:37:31;;;;;;;20.25;3.63;;;;;;;9.96;100.00;100885.94;5044677;28;20112;-88
2023/11/20 07:39:57;;;;;;;20.00;3.20;;;;;;;9.93;100.00;100890.44;5034274;28;20033;-88
2023/11/20 07:42:22;;;;;;;17.48;3.30;;;;;;;9.92;100.00;100888.75;5035985;28;20049;-88
2023/11/20 07:44:48;;;;;;;19.98;4.25;;;;;;;9.88;100.00;100898.47;5032843;28;20029;-88
2023/11/20 07:47:13;;;;;;;23.52;3.33;;;;;;;9.88;100.00;100898.47;5044685;28;20037;-88
2023/11/20 07:49:39;;;;;;;23.02;2.67;;;;;;;9.89;100.00;100900.16;5042803;28;20263;-88
2023/11/20 07:52:05;;;;;;;28.85;3.30;;;;;;;9.87;100.00;100895.91;5052665;28;20032;-88
2023/11/20 07:54:31;;;;;;;18.40;3.03;;;;;;;9.92;100.00;100894.81;5034899;28;20053;-88
2023/11/20 07:56:57;;;;;;;15.52;2.53;;;;;;;9.96;100.00;100895.56;5041803;28;20036;-88
2023/11/20 07:59:23;;;;;;;15.35;3.20;;;;;;;9.99;100.00;100900.69;5038895;28;20419;-88
2023/11/20 08:01:49;;;;;;;32.60;3.42;;;;;;;9.98;100.00;100898.97;5044984;28;20290;-88
2023/11/20 08:04:16;;;;;;;17.00;3.10;;;;;;;10.00;100.00;100905.00;5045017;28;20517;-88
2023/11/20 08:06:44;;;;;;;19.25;3.33;;;;;;;10.01;100.00;100904.09;5040911;28;20837;-88
2023/11/20 08:09:10;;;;;;;19.17;3.38;;;;;;;10.03;100.00;100896.19;5044026;28;20276;-88
2023/11/20 08:11:36;;;;;;;14.57;3.30;;;;;;;10.02;100.00;100897.09;5045016;28;20040;-88
2023/11/20 08:14:02;;;;;;;11.65;2.78;;;;;;;10.04;100.00;100896.13;5056493;28;20032;-88
2023/11/20 08:16:27;;;;;;;9.25;2.42;;;;;;;10.07;100.00;100889.94;5048201;28;20070;-88
2023/11/20 08:18:57;;;;;;;12.52;2.45;;;;;;;10.08;100.00;100895.09;5052593;28;20332;-88
2023/11/20 08:21:22;;;;;;;18.73;3.35;;;;;;;10.11;100.00;100891.50;5049583;28;20208;-88
2023/11/20 08:23:49;;;;;;;19.98;3.60;;;;;;;10.11;100.00;100894.97;5043754;28;20017;-88
2023/11/20 08:26:15;;;;;;;14.32;3.88;;;;;;;10.13;100.00;100892.28;5030162;28;20067;-88
2023/11/20 08:28:40;;;;;;;19.73;4.07;;;;;;;10.10;100.00;100879.34;5045026;28;20056;-88
2023/11/20 08:31:06;;;;;;;20.40;3.08;;;;;;;10.09;100.00;100883.72;5048638;28;20422;-88
2023/11/20 08:33:31;;;;;;;17.08;3.33;;;;;;;10.12;100.00;100888.84;5042415;28;20108;-88
2023/11/20 08:35:57;;;;;;;14.60;2.97;;;;;;;10.13;100.00;100889.69;5048964;28;20025;-88
2023/11/20 08:38:22;;;;;;;19.42;3.17;;;;;;;10.11;100.00;100894.13;5048783;28;20024;-88
2023/11/20 08:40:48;;;;;;;14.35;3.08;;;;;;;10.16;100.00;100890.41;5048454;28;20029;-88
2023/11/20 08:43:13;;;;;;;15.15;3.00;;;;;;;10.17;100.00;100888.69;5048185;28;20055;-88
2023/11/20 08:45:39;;;;;;;16.67;3.00;;;;;;;10.16;100.00;100890.41;5043541;28;20025;-88
2023/11/20 08:48:05;;;;;;;21.92;3.85;;;;;;;10.13;100.00;100882.69;5049851;28;20039;-88
2023/11/20 08:50:31;;;;;;;39.10;4.18;;;;;;;10.15;100.00;100890.47;5042043;28;20033;-88
2023/11/20 08:52:57;;;;;;;19.10;3.25;;;;;;;10.16;100.00;100893.03;5048463;28;20263;-88
2023/11/20 08:55:23;;;;;;;26.15;3.22;;;;;;;10.14;100.00;100892.25;5049992;28;20354;-88
2023/11/20 08:57:48;;;;;;;25.63;4.25;;;;;;;10.16;100.00;100887.81;5051967;28;20039;-88
2023/11/20 09:00:14;;;;;;;21.42;2.60;;;;;;;10.16;100.00;100884.34;5047419;28;20025;-88
2023/11/20 09:02:43;;;;;;;23.00;3.55;;;;;;;10.16;100.00;100884.34;5050019;28;20033;-88
2023/11/20 09:05:12;;;;;;;21.75;3.10;;;;;;;10.19;100.00;100879.00;5052314;28;20040;-88
2023/11/20 09:07:38;;;;;;;18.67;3.22;;;;;;;10.20;100.00;100883.31;5051956;28;20363;-88
2023/11/20 09:10:04;;;;;;;19.20;3.55;;;;;;;10.23;100.00;100890.19;5051861;28;20029;-88
2023/11/20 09:12:30;;;;;;;17.08;3.17;;;;;;;10.22;100.00;100888.47;5052567;28;20046;-88
2023/11/20 09:14:56;;;;;;;22.15;3.28;;;;;;;10.19;100.00;100894.69;5049870;28;20029;-88
2023/11/20 09:17:21;;;;;;;18.80;2.92;;;;;;;10.14;100.00;100892.25;5050622;28;20262;-88
2023/11/20 09:19:46;;;;;;;25.75;3.17;;;;;;;10.13;100.00;100897.53;5045792;28;20036;-88
2023/11/20 09:22:14;;;;;;;13.70;3.00;;;;;;;10.15;100.00;100899.19;5052414;28;20037;-88
2023/11/20 09:24:39;;;;;;;18.25;2.92;;;;;;;10.17;100.00;100897.38;5048121;28;20013;-88
2023/11/20 09:27:09;;;;;;;13.15;2.38;;;;;;;10.18;100.00;100891.22;5052662;28;20032;-88
2023/11/20 09:29:34;;;;;;;11.85;2.58;;;;;;;10.21;100.00;100890.25;5051453;28;20029;-88
2023/11/20 09:32:00;;;;;;;5.55;2.10;;;;;;;10.24;100.00;100889.28;5051857;28;20100;-88
2023/11/20 09:34:25;;;;;;;10.80;2.38;;;;;;;10.24;100.00;100884.03;5043459;28;20041;-88
2023/11/20 09:36:51;;;;;;;8.52;1.95;;;;;;;10.24;100.00;100889.28;5051483;28;20032;-88
2023/11/20 09:39:17;;;;;;;15.50;2.28;;;;;;;10.22;100.00;100875.41;5051288;28;20466;-88
2023/11/20 09:41:43;;;;;;;16.15;3.83;;;;;;;10.19;100.00;100881.63;5046595;28;20363;-88
2023/11/20 09:44:10;;;;;;;22.40;4.28;;;;;;;10.18;100.00;100862.41;5053438;28;20320;-88
2023/11/20 09:46:40;;;;;;;20.88;3.17;;;;;;;10.23;100.00;100871.88;5053202;28;20359;-88
2023/11/20 09:49:08;;;;;;;14.85;2.58;;;;;;;10.29;100.00;100874.25;5050988;28;20036;-88
2023/11/20 09:51:36;;;;;;;22.90;3.63;;;;;;;10.32;100.00;100869.78;5052105;28;20036;-88
2023/11/20 09:54:08;;;;;;;24.53;3.70;;;;;;;10.36;100.00;100870.50;5052533;28;20067;-88
2023/11/20 09:56:34;;;;;;;26.13;4.30;;;;;;;10.38;100.00;100859.06;5051793;28;20620;-88
2023/11/20 09:59:00;;;;;;;25.48;3.72;;;;;;;10.35;100.00;100871.41;5050691;28;20013;-88
2023/11/20 10:01:26;;;;;;;16.60;2.72;;;;;;;10.37;100.00;100867.00;5052893;28;20404;-88
2023/11/20 10:03:54;;;;;;;22.83;2.72;;;;;;;10.36;100.00;100878.38;5053743;28;20024;-88
2023/11/20 10:06:22;;;;;;;22.75;3.22;;;;;;;10.36;100.00;100873.97;5048260;28;20040;-88
2023/11/20 10:08:50;;;;;;;25.08;3.08;;;;;;;10.30;100.00;100871.56;5042838;28;20281;-88
2023/11/20 10:11:17;;;;;;;17.77;2.78;;;;;;;10.36;100.00;100870.50;5043625;28;20032;-88
2023/11/20 10:13:43;;;;;;;24.58;3.70;;;;;;;10.41;100.00;100867.72;5050590;28;20342;-88
2023/11/20 10:16:19;;;;;;;23.55;3.25;;;;;;;10.46;100.00;100857.91;5048341;28;20098;-88
2023/11/20 10:18:46;;;;;;;25.08;3.25;;;;;;;10.50;100.00;100862.97;5050939;28;20514;-88
2023/11/20 10:21:12;;;;;;;18.77;3.13;;;;;;;10.57;100.00;100859.19;5046417;28;20078;-88
2023/11/20 10:23:40;;;;;;;12.68;2.50;;;;;;;10.63;100.00;100847.59;5050663;28;20039;-88
2023/11/20 10:26:07;;;;;;;25.93;3.37;;;;;;;10.67;100.00;100846.56;5048308;28;20033;-88
2023/11/20 10:28:37;;;;;;;13.27;2.75;;;;;;;10.69;100.00;100846.50;5051410;28;20103;-88
2023/11/20 10:31:02;;;;;;;22.55;3.72;;;;;;;10.67;100.00;100838.69;5045910;28;20202;-88
2023/11/20 10:33:28;;;;;;;16.98;2.42;;;;;;;10.65;100.00;100835.31;5051366;28;20055;-88
2023/11/20 10:35:53;;;;;;;21.73;2.92;;;;;;;10.67;100.00;100832.63;5047860;28;20040;-88
2023/11/20 10:38:21;;;;;;;21.23;2.75;;;;;;;10.73;100.00;100835.84;5051787;28;20060;-88
2023/11/20 10:40:50;;;;;;;23.58;2.80;;;;;;;10.71;100.00;100834.19;5065070;28;20210;-88
2023/11/20 10:43:16;;;;;;;15.65;2.75;;;;;;;10.71;100.00;100834.19;5044777;28;20021;-88
2023/11/20 10:45:41;;;;;;;9.52;2.60;;;;;;;10.73;100.00;100830.63;5041394;28;20059;-88
2023/11/20 10:48:07;;;;;;;13.15;2.40;;;;;;;10.74;100.00;100836.69;5052154;28;20090;-88
2023/11/20 10:50:35;;;;;;;14.30;3.78;;;;;;;10.76;100.00;100834.88;5054199;28;20075;-88
2023/11/20 10:53:07;;;;;;;18.30;3.13;;;;;;;10.74;100.00;100826.22;5054481;28;20040;-88
2023/11/20 10:55:50;;;;;;;23.73;3.53;;;;;;;10.72;100.00;100828.91;5055037;28;20336;-88
2023/11/20 10:58:16;;;;;;;17.23;3.35;;;;;;;10.74;100.00;100820.97;5054639;28;20036;-88
2023/11/20 11:00:42;;;;;;;16.48;3.05;;;;;;;10.70;100.00;100822.03;5052887;28;20289;-88
2023/11/20 11:03:11;;;;;;;18.92;2.97;;;;;;;10.70;100.00;100820.25;5054557;28;20220;-88
2023/11/20 11:05:43;;;;;;;13.05;2.67;;;;;;;10.70;100.00;100820.25;5053549;28;20551;-88